Sumifukumaru No.5 — JD3058 — position and weather

sailwx.info

Track history (hours):
 
Tides and Currents Weather Stations Pressure Air Temp Water Temp Dewpoint Dewpoint Depression Visibility Wind Speed Wind Dir Waves Ship Positions

Sumifukumaru No.5

Last reported at 2016-Jul-24 00:14 UTC. Time now 2016-Jul-29 12:07 UTC.
Position N 34°35' E 134°50'.

Length 75 m; draft 4.4 m.

Type: Cargo ship. MMSI: 431001371.

Date/timePositionNaut miles runAvg speedWind from/ knotsBaromVisibWave heightAir tempDewpointWater temp
2016-Jul-24 00:14N 34°35' E 134°50'913.3
2016-Jul-23 23:33N 34°37' E 135°01'1212.2
2016-Jul-23 22:33N 34°37' E 135°16'8 0.4
2016-Jul-22 23:33N 34°42' E 135°24'2 2.3
2016-Jul-22 22:32N 34°40' E 135°22'0 0.0
2016-Jul-22 21:32N 34°40' E 135°22'0 0.0
2016-Jul-22 20:32N 34°40' E 135°22'0 0.0
2016-Jul-22 19:32N 34°40' E 135°22'6 6.6
2016-Jul-22 18:33N 34°35' E 135°18'1111.1
2016-Jul-22 17:33N 34°25' E 135°10'1410.0
2016-Jul-22 16:07N 34°12' E 135°03'234 9.5
2016-Jul-21 15:32N 34°52' E 139°42'1311.4
2016-Jul-21 14:26N 34°53' E 139°57'1011.0
2016-Jul-21 13:33N 34°59' E 140°07'2510.7
2016-Jul-21 11:14N 35°15' E 140°30'44 9.3
2016-Jul-21 06:30N 35°58' E 140°43'3 3.3
2016-Jul-21 05:28N 35°56' E 140°40'0 0.1
2016-Jul-21 04:25N 35°56' E 140°40'0 0.0
2016-Jul-21 03:22N 35°56' E 140°40'0 0.1
2016-Jul-21 02:22N 35°56' E 140°40'0 0.1
2016-Jul-21 01:33N 35°56' E 140°40'0 0.0
2016-Jul-21 00:33N 35°56' E 140°40'0 0.1
2016-Jul-20 23:33N 35°56' E 140°40'0 0.1
2016-Jul-20 22:32N 35°56' E 140°40'0 0.0
2016-Jul-20 21:34N 35°56' E 140°40'0 0.0
2016-Jul-20 20:34N 35°56' E 140°40'1 0.7
2016-Jul-20 19:33N 35°55' E 140°41'8 7.9
2016-Jul-20 18:31N 35°51' E 140°49'1111.0
2016-Jul-20 17:30N 35°40' E 140°54'1111.8
2016-Jul-20 16:33N 35°31' E 140°45'1412.9
2016-Jul-20 15:26N 35°20' E 140°35'2513.4
2016-Jul-20 13:33N 35°02' E 140°13'2411.5
2016-Jul-20 11:30N 34°55' E 139°46'1111.3
2016-Jul-20 10:33N 35°05' E 139°44'1212.0
2016-Jul-20 09:34N 35°17' E 139°45'1010.4
2016-Jul-20 08:33N 35°27' E 139°47'1212.2
2016-Jul-20 07:33N 35°36' E 139°57'4 3.7
2016-Jul-20 06:30N 35°40' E 139°57'0 0.0
2016-Jul-20 02:33N 35°40' E 139°57'0 0.0
2016-Jul-20 01:33N 35°40' E 139°57'0 0.0
2016-Jul-20 00:33N 35°40' E 139°57'0 0.0
2016-Jul-19 23:30N 35°40' E 139°57'0 0.1
2016-Jul-19 22:33N 35°40' E 139°57'3 2.6
2016-Jul-19 21:15N 35°37' E 139°58'0 0.0
2016-Jul-19 20:33N 35°37' E 139°58'0 0.1
2016-Jul-19 19:33N 35°37' E 139°58'0 0.0
2016-Jul-19 18:33N 35°37' E 139°58'0 0.0
2016-Jul-19 17:33N 35°37' E 139°58'7 6.8
2016-Jul-19 16:33N 35°32' E 139°54'1212.0
2016-Jul-19 15:33N 35°22' E 139°45'1111.1
2016-Jul-19 14:32N 35°11' E 139°47'60 9.8
2016-Jul-19 08:28N 34°42' E 138°43'187 4.9
2016-Jul-17 18:25N 34°03' E 135°02'1011.4
2016-Jul-17 17:33N 34°12' E 135°02'1212.0
2016-Jul-17 16:33N 34°23' E 135°08'1211.8
2016-Jul-17 15:33N 34°32' E 135°18'8 7.8
2016-Jul-17 14:33N 34°34' E 135°27'0 0.1
2016-Jul-17 13:30N 34°34' E 135°27'0 0.0
2016-Jul-17 08:06N 34°34' E 135°27'0 0.0
2016-Jul-16 22:33N 34°34' E 135°27'0 0.1
2016-Jul-16 21:23N 34°34' E 135°27'0 0.0
2016-Jul-16 20:29N 34°34' E 135°27'0 0.0
2016-Jul-16 19:23N 34°34' E 135°27'0 0.0
2016-Jul-16 18:29N 34°34' E 135°27'0 0.0
2016-Jul-16 17:29N 34°34' E 135°27'0 0.0
2016-Jul-16 14:23N 34°34' E 135°27'0 0.0
2016-Jul-16 13:29N 34°34' E 135°27'0 0.0
2016-Jul-16 12:29N 34°34' E 135°27'0 0.0
2016-Jul-16 11:26N 34°34' E 135°27'1 0.2
2016-Jul-16 08:33N 34°35' E 135°27'7 6.8
2016-Jul-16 07:33N 34°41' E 135°23'1 0.3
2016-Jul-16 03:26N 34°42' E 135°24'0 0.0
2016-Jul-16 00:33N 34°42' E 135°24'0 0.1
2016-Jul-15 23:33N 34°42' E 135°24'6 5.7
2016-Jul-15 22:33N 34°37' E 135°21'6 0.3
2016-Jul-15 04:12N 34°34' E 135°27'5 7.1
2016-Jul-15 03:33N 34°35' E 135°22'1110.8
2016-Jul-15 02:33N 34°28' E 135°13'  
Track history (hours):
 
Tides and Currents Weather Stations Pressure Air Temp Water Temp Dewpoint Dewpoint Depression Visibility Wind Speed Wind Dir Waves Ship Positions

Sumifukumaru No.5

Last reported at 2016-Jul-24 00:14 UTC. Time now 2016-Jul-29 12:07 UTC.
Position N 34°35' E 134°50'.

Length 75 m; draft 4.4 m.

Type: Cargo ship. MMSI: 431001371.

Date/timePositionNaut miles runAvg speedWind from/ knotsBaromVisibWave heightAir tempDewpointWater temp
2016-Jul-24 00:14N 34°35' E 134°50'913.3
2016-Jul-23 23:33N 34°37' E 135°01'1212.2
2016-Jul-23 22:33N 34°37' E 135°16'8 0.4
2016-Jul-22 23:33N 34°42' E 135°24'2 2.3
2016-Jul-22 22:32N 34°40' E 135°22'0 0.0
2016-Jul-22 21:32N 34°40' E 135°22'0 0.0
2016-Jul-22 20:32N 34°40' E 135°22'0 0.0
2016-Jul-22 19:32N 34°40' E 135°22'6 6.6
2016-Jul-22 18:33N 34°35' E 135°18'1111.1
2016-Jul-22 17:33N 34°25' E 135°10'1410.0
2016-Jul-22 16:07N 34°12' E 135°03'234 9.5
2016-Jul-21 15:32N 34°52' E 139°42'1311.4
2016-Jul-21 14:26N 34°53' E 139°57'1011.0
2016-Jul-21 13:33N 34°59' E 140°07'2510.7
2016-Jul-21 11:14N 35°15' E 140°30'44 9.3
2016-Jul-21 06:30N 35°58' E 140°43'3 3.3
2016-Jul-21 05:28N 35°56' E 140°40'0 0.1
2016-Jul-21 04:25N 35°56' E 140°40'0 0.0
2016-Jul-21 03:22N 35°56' E 140°40'0 0.1
2016-Jul-21 02:22N 35°56' E 140°40'0 0.1
2016-Jul-21 01:33N 35°56' E 140°40'0 0.0
2016-Jul-21 00:33N 35°56' E 140°40'0 0.1
2016-Jul-20 23:33N 35°56' E 140°40'0 0.1
2016-Jul-20 22:32N 35°56' E 140°40'0 0.0
2016-Jul-20 21:34N 35°56' E 140°40'0 0.0
2016-Jul-20 20:34N 35°56' E 140°40'1 0.7
2016-Jul-20 19:33N 35°55' E 140°41'8 7.9
2016-Jul-20 18:31N 35°51' E 140°49'1111.0
2016-Jul-20 17:30N 35°40' E 140°54'1111.8
2016-Jul-20 16:33N 35°31' E 140°45'1412.9
2016-Jul-20 15:26N 35°20' E 140°35'2513.4
2016-Jul-20 13:33N 35°02' E 140°13'2411.5
2016-Jul-20 11:30N 34°55' E 139°46'1111.3
2016-Jul-20 10:33N 35°05' E 139°44'1212.0
2016-Jul-20 09:34N 35°17' E 139°45'1010.4
2016-Jul-20 08:33N 35°27' E 139°47'1212.2
2016-Jul-20 07:33N 35°36' E 139°57'4 3.7
2016-Jul-20 06:30N 35°40' E 139°57'0 0.0
2016-Jul-20 02:33N 35°40' E 139°57'0 0.0
2016-Jul-20 01:33N 35°40' E 139°57'0 0.0
2016-Jul-20 00:33N 35°40' E 139°57'0 0.0
2016-Jul-19 23:30N 35°40' E 139°57'0 0.1
2016-Jul-19 22:33N 35°40' E 139°57'3 2.6
2016-Jul-19 21:15N 35°37' E 139°58'0 0.0
2016-Jul-19 20:33N 35°37' E 139°58'0 0.1
2016-Jul-19 19:33N 35°37' E 139°58'0 0.0
2016-Jul-19 18:33N 35°37' E 139°58'0 0.0
2016-Jul-19 17:33N 35°37' E 139°58'7 6.8
2016-Jul-19 16:33N 35°32' E 139°54'1212.0
2016-Jul-19 15:33N 35°22' E 139°45'1111.1
2016-Jul-19 14:32N 35°11' E 139°47'60 9.8
2016-Jul-19 08:28N 34°42' E 138°43'187 4.9
2016-Jul-17 18:25N 34°03' E 135°02'1011.4
2016-Jul-17 17:33N 34°12' E 135°02'1212.0
2016-Jul-17 16:33N 34°23' E 135°08'1211.8
2016-Jul-17 15:33N 34°32' E 135°18'8 7.8
2016-Jul-17 14:33N 34°34' E 135°27'0 0.1
2016-Jul-17 13:30N 34°34' E 135°27'0 0.0
2016-Jul-17 08:06N 34°34' E 135°27'0 0.0
2016-Jul-16 22:33N 34°34' E 135°27'0 0.1
2016-Jul-16 21:23N 34°34' E 135°27'0 0.0
2016-Jul-16 20:29N 34°34' E 135°27'0 0.0
2016-Jul-16 19:23N 34°34' E 135°27'0 0.0
2016-Jul-16 18:29N 34°34' E 135°27'0 0.0
2016-Jul-16 17:29N 34°34' E 135°27'0 0.0
2016-Jul-16 14:23N 34°34' E 135°27'0 0.0
2016-Jul-16 13:29N 34°34' E 135°27'0 0.0
2016-Jul-16 12:29N 34°34' E 135°27'0 0.0
2016-Jul-16 11:26N 34°34' E 135°27'1 0.2
2016-Jul-16 08:33N 34°35' E 135°27'7 6.8
2016-Jul-16 07:33N 34°41' E 135°23'1 0.3
2016-Jul-16 03:26N 34°42' E 135°24'0 0.0
2016-Jul-16 00:33N 34°42' E 135°24'0 0.1
2016-Jul-15 23:33N 34°42' E 135°24'6 5.7
2016-Jul-15 22:33N 34°37' E 135°21'6 0.3
2016-Jul-15 04:12N 34°34' E 135°27'5 7.1
2016-Jul-15 03:33N 34°35' E 135°22'1110.8
2016-Jul-15 02:33N 34°28' E 135°13'  

Dump ship's entire track history